createdAt,value
2019-01-29T00:07:35.158Z,95.70
2019-01-29T00:08:35.354Z,95.56
2019-01-29T00:09:34.043Z,95.81
2019-01-29T00:10:34.266Z,95.39
2019-01-29T00:11:34.071Z,95.45
2019-01-29T00:13:33.957Z,95.39
2019-01-29T00:14:34.833Z,95.29
2019-01-29T00:15:33.873Z,95.70
2019-01-29T00:16:33.848Z,95.91
2019-01-29T00:17:33.816Z,95.76
2019-01-29T00:18:33.815Z,95.39
2019-01-29T00:19:33.791Z,95.91
2019-01-29T00:20:33.761Z,95.70
2019-01-29T00:21:33.779Z,96.33
2019-01-29T00:22:33.781Z,96.01
2019-01-29T00:23:33.755Z,95.87
2019-01-29T00:24:33.731Z,96.43
2019-01-29T00:25:33.714Z,96.43
2019-01-29T00:26:33.741Z,96.08
2019-01-29T00:27:33.704Z,95.70
2019-01-29T00:28:33.701Z,96.01
2019-01-29T00:29:33.719Z,95.91
2019-01-29T00:30:33.682Z,96.22
2019-01-29T00:31:33.664Z,96.12
2019-01-29T00:32:33.678Z,96.33
2019-01-29T00:33:34.151Z,96.33
2019-01-29T00:34:33.634Z,96.33
2019-01-29T00:35:33.624Z,96.33
2019-01-29T00:36:33.598Z,96.08
2019-01-29T00:37:35.156Z,96.01
2019-01-29T00:38:33.568Z,96.64
2019-01-29T00:39:33.595Z,96.80
2019-01-29T00:40:33.577Z,96.75
2019-01-29T00:42:34.756Z,96.64
2019-01-29T00:43:33.533Z,95.91
2019-01-29T00:44:33.549Z,96.53
2019-01-29T00:46:34.662Z,96.18
2019-01-29T00:47:33.705Z,95.91
2019-01-29T00:48:33.737Z,96.18
2019-01-29T00:49:33.640Z,96.33
2019-01-29T00:50:33.633Z,96.22
2019-01-29T00:51:33.653Z,96.28
2019-01-29T00:52:41.680Z,95.70
2019-01-29T00:53:34.431Z,95.50
2019-01-29T00:54:33.419Z,95.45
2019-01-29T00:55:33.429Z,95.56
2019-01-29T00:56:33.673Z,95.45
2019-01-29T00:58:34.562Z,95.81
2019-01-29T00:59:54.349Z,95.70
2019-01-29T01:00:33.351Z,95.60
2019-01-29T01:01:33.345Z,95.18
2019-01-29T01:02:33.322Z,95.60
2019-01-29T01:03:33.353Z,95.50
2019-01-29T01:05:34.459Z,95.50
2019-01-29T01:06:33.289Z,95.70
2019-01-29T01:07:33.266Z,95.39
2019-01-29T01:09:34.425Z,95.70
2019-01-29T01:10:33.238Z,95.54
2019-01-29T01:11:33.224Z,95.50
2019-01-29T01:12:54.225Z,95.23
2019-01-29T01:13:33.199Z,94.92
2019-01-29T01:14:33.211Z,95.85
2019-01-29T01:15:33.194Z,95.75
2019-01-29T01:16:33.196Z,95.27
2019-01-29T01:18:34.169Z,95.17
2019-01-29T01:19:33.258Z,95.62
2019-01-29T01:20:33.133Z,95.83
2019-01-29T01:21:33.113Z,96.50
2019-01-29T01:22:33.102Z,96.04
2019-01-29T01:24:34.299Z,96.71
2019-01-29T01:25:33.310Z,96.50
2019-01-29T01:26:33.238Z,96.61
2019-01-29T01:27:33.223Z,96.82
2019-01-29T01:28:33.035Z,96.61
2019-01-29T01:29:33.167Z,96.61
2019-01-29T01:30:33.041Z,96.71
2019-01-29T01:31:33.033Z,96.92
2019-01-29T01:32:33.009Z,96.92
2019-01-29T01:33:33.011Z,97.03
2019-01-29T01:34:32.994Z,96.92
2019-01-29T01:35:32.984Z,96.92
2019-01-29T01:36:32.967Z,96.92
2019-01-29T01:37:32.947Z,97.03
2019-01-29T01:38:32.949Z,96.61
2019-01-29T01:39:32.925Z,96.71
2019-01-29T01:40:32.926Z,96.92
2019-01-29T01:41:32.926Z,96.82
2019-01-29T01:42:32.895Z,96.82
2019-01-29T01:43:32.889Z,96.71
2019-01-29T01:44:32.921Z,96.71
2019-01-29T01:45:32.978Z,96.92
2019-01-29T01:46:32.847Z,96.82
2019-01-29T01:47:32.858Z,96.71
2019-01-29T01:48:32.886Z,96.92
2019-01-29T01:49:32.839Z,96.71
2019-01-29T01:50:32.831Z,96.92
2019-01-29T01:51:32.835Z,96.92
2019-01-29T01:52:32.857Z,96.71
2019-01-29T01:53:32.773Z,96.82
2019-01-29T01:54:32.767Z,96.61
2019-01-29T01:55:32.805Z,96.98
2019-01-29T01:56:32.743Z,96.82
2019-01-29T01:57:32.731Z,96.77
2019-01-29T01:58:32.745Z,97.24
2019-01-29T01:59:32.705Z,96.56
2019-01-29T02:00:32.699Z,96.67
2019-01-29T02:01:32.709Z,96.92
2019-01-29T02:02:32.681Z,96.77
2019-01-29T02:03:32.663Z,96.77
2019-01-29T02:04:32.669Z,96.04
2019-01-29T02:05:32.642Z,96.25
2019-01-29T02:06:32.653Z,96.36
2019-01-29T02:07:32.625Z,96.56
2019-01-29T02:08:32.614Z,96.15
2019-01-29T02:09:32.607Z,95.73
2019-01-29T02:10:32.604Z,95.83
2019-01-29T02:11:32.595Z,95.42
2019-01-29T02:12:32.575Z,95.73
2019-01-29T02:13:32.564Z,95.52
2019-01-29T02:14:32.545Z,95.62
2019-01-29T02:15:32.546Z,95.21
2019-01-29T02:16:32.555Z,95.42
2019-01-29T02:17:32.543Z,95.31
2019-01-29T02:18:32.517Z,94.69
2019-01-29T02:19:32.497Z,94.79
2019-01-29T02:20:32.481Z,94.69
2019-01-29T02:21:32.505Z,94.90
2019-01-29T02:22:32.459Z,95.10
2019-01-29T02:23:32.455Z,94.90
2019-01-29T02:24:32.437Z,94.37
2019-01-29T02:25:32.470Z,93.65
2019-01-29T02:26:32.422Z,94.17
2019-01-29T02:27:32.427Z,94.27
2019-01-29T02:28:32.403Z,94.79
2019-01-29T02:29:32.393Z,94.48
2019-01-29T02:30:32.374Z,94.48
2019-01-29T02:31:32.382Z,93.54
2019-01-29T02:32:32.381Z,93.65
2019-01-29T02:33:32.343Z,94.37
2019-01-29T02:34:32.340Z,93.96
2019-01-29T02:35:32.327Z,93.96
2019-01-29T02:36:32.304Z,93.85
2019-01-29T02:37:32.322Z,93.90
2019-01-29T02:38:32.291Z,93.79
2019-01-29T02:39:32.290Z,93.59
2019-01-29T02:40:32.269Z,93.85
2019-01-29T02:41:32.263Z,93.85
2019-01-29T02:42:32.273Z,93.65
2019-01-29T02:43:32.228Z,93.79
2019-01-29T02:44:32.239Z,94.00
2019-01-29T02:45:32.235Z,93.79
2019-01-29T02:46:32.203Z,94.00
2019-01-29T02:47:32.213Z,93.79
2019-01-29T02:48:32.179Z,94.21
2019-01-29T02:49:32.179Z,93.59
2019-01-29T02:50:32.175Z,94.00
2019-01-29T02:51:32.181Z,94.42
2019-01-29T02:52:32.180Z,94.17
2019-01-29T02:53:32.128Z,94.21
2019-01-29T02:54:32.120Z,94.10
2019-01-29T02:55:32.108Z,94.57
2019-01-29T02:56:32.105Z,94.31
2019-01-29T02:57:32.109Z,94.46
2019-01-29T02:58:32.080Z,94.35
2019-01-29T02:59:32.061Z,94.78
2019-01-29T03:00:32.061Z,94.78
2019-01-29T03:01:32.037Z,94.67
2019-01-29T03:02:32.049Z,95.09
2019-01-29T03:03:32.025Z,94.78
2019-01-29T03:04:32.017Z,94.40
2019-01-29T03:05:32.009Z,94.71
2019-01-29T03:06:32.015Z,94.61
2019-01-29T03:07:32.047Z,94.82
2019-01-29T03:08:31.986Z,94.71
2019-01-29T03:09:31.993Z,95.23
2019-01-29T03:10:31.950Z,94.98
2019-01-29T03:11:31.965Z,94.71
2019-01-29T03:12:31.945Z,94.61
2019-01-29T03:13:31.920Z,94.82
2019-01-29T03:14:31.916Z,94.57
2019-01-29T03:15:31.905Z,95.13
2019-01-29T03:16:31.884Z,95.13
2019-01-29T03:17:31.943Z,95.13
2019-01-29T03:18:32.011Z,95.13
2019-01-29T03:19:31.870Z,95.55
2019-01-29T03:20:31.859Z,95.80
2019-01-29T03:21:31.869Z,95.76
2019-01-29T03:22:31.840Z,95.70
2019-01-29T03:23:31.898Z,95.65
2019-01-29T03:24:31.819Z,96.07
2019-01-29T03:25:31.805Z,95.80
2019-01-29T03:26:31.827Z,95.59
2019-01-29T03:27:31.777Z,95.49
2019-01-29T03:28:31.787Z,96.01
2019-01-29T03:29:31.946Z,96.01
2019-01-29T03:30:33.787Z,96.22
2019-01-29T03:31:31.747Z,95.84
2019-01-29T03:32:31.729Z,96.84
2019-01-29T03:33:31.747Z,96.53
2019-01-29T03:34:31.704Z,96.11
2019-01-29T03:35:31.692Z,96.53
2019-01-29T03:36:31.685Z,96.84
2019-01-29T03:37:31.666Z,96.16
2019-01-29T03:38:31.786Z,96.16
2019-01-29T03:39:31.693Z,96.16
2019-01-29T03:40:31.641Z,96.26
2019-01-29T03:41:31.675Z,95.84
2019-01-29T03:42:31.652Z,95.84
2019-01-29T03:43:31.771Z,95.95
2019-01-29T03:44:31.644Z,95.43
2019-01-29T03:45:31.648Z,95.43
2019-01-29T03:47:32.803Z,95.53
2019-01-29T03:48:31.582Z,95.43
2019-01-29T03:49:31.551Z,95.74
2019-01-29T03:50:31.530Z,95.64
2019-01-29T03:51:31.541Z,95.53
2019-01-29T03:52:31.514Z,95.95
2019-01-29T03:53:37.867Z,95.95
2019-01-29T03:54:32.512Z,95.53
2019-01-29T03:55:31.535Z,95.11
2019-01-29T03:56:31.515Z,95.64
2019-01-29T03:57:31.483Z,95.64
2019-01-29T03:58:31.480Z,95.21
2019-01-29T03:59:31.446Z,94.70
2019-01-29T04:00:31.478Z,94.59
2019-01-29T04:01:31.433Z,94.90
2019-01-29T04:02:31.413Z,94.80
2019-01-29T04:03:31.397Z,94.80
2019-01-29T04:04:31.425Z,94.80
2019-01-29T04:05:31.384Z,94.90
2019-01-29T04:06:31.362Z,94.80
2019-01-29T04:07:31.361Z,94.90
2019-01-29T04:08:31.353Z,94.80
2019-01-29T04:09:31.357Z,94.38
2019-01-29T04:10:31.319Z,94.90
2019-01-29T04:11:31.322Z,94.59
2019-01-29T04:12:31.301Z,94.49
2019-01-29T04:13:31.318Z,94.70
2019-01-29T04:14:31.315Z,94.80
2019-01-29T04:15:31.264Z,94.70
2019-01-29T04:16:31.278Z,94.70
2019-01-29T04:17:31.241Z,94.90
2019-01-29T04:18:31.239Z,94.80
2019-01-29T04:19:31.252Z,94.27
2019-01-29T04:20:31.213Z,94.90
2019-01-29T04:21:31.199Z,95.11
2019-01-29T04:22:31.198Z,94.90
2019-01-29T04:23:31.185Z,94.27
2019-01-29T04:24:31.201Z,94.38
2019-01-29T04:25:31.172Z,94.59
2019-01-29T04:26:31.181Z,94.70
2019-01-29T04:27:31.149Z,94.17
2019-01-29T04:28:31.137Z,93.96
2019-01-29T04:29:31.144Z,93.96
2019-01-29T04:30:31.121Z,93.76
2019-01-29T04:31:31.121Z,93.54
2019-01-29T04:32:31.097Z,93.33
2019-01-29T04:33:31.088Z,93.23
2019-01-29T04:34:31.084Z,93.33
2019-01-29T04:35:31.109Z,93.23
2019-01-29T04:36:31.058Z,92.71
2019-01-29T04:37:31.027Z,91.91
2019-01-29T04:38:31.023Z,91.81
2019-01-29T04:39:31.025Z,92.13
2019-01-29T04:40:31.049Z,92.02
2019-01-29T04:41:31.000Z,92.02
2019-01-29T04:42:30.995Z,91.91
2019-01-29T04:43:30.995Z,92.33
2019-01-29T04:44:30.956Z,92.54
2019-01-29T04:45:30.971Z,92.75
2019-01-29T04:46:30.932Z,92.54
2019-01-29T04:47:30.929Z,92.44
2019-01-29T04:48:30.928Z,91.71
2019-01-29T04:49:30.902Z,92.02
2019-01-29T04:50:30.907Z,91.91
2019-01-29T04:51:30.886Z,91.60
2019-01-29T04:52:30.877Z,91.71
2019-01-29T04:53:30.869Z,91.39
2019-01-29T04:54:30.864Z,92.02
2019-01-29T04:55:30.882Z,92.02
2019-01-29T04:56:30.826Z,91.91
2019-01-29T04:57:30.820Z,91.91
2019-01-29T04:58:30.805Z,91.91
2019-01-29T04:59:30.827Z,91.60
2019-01-29T05:00:30.815Z,91.18
2019-01-29T05:01:30.771Z,91.28
2019-01-29T05:02:30.782Z,91.60
2019-01-29T05:03:30.752Z,90.81
2019-01-29T05:04:30.744Z,91.60
2019-01-29T05:05:30.757Z,91.60
2019-01-29T05:06:30.725Z,91.39
2019-01-29T05:07:30.707Z,90.59
2019-01-29T05:08:30.765Z,90.70
2019-01-29T05:09:30.711Z,91.28
2019-01-29T05:10:30.693Z,91.28
2019-01-29T05:11:30.674Z,90.87
2019-01-29T05:12:30.656Z,90.34
2019-01-29T05:13:37.183Z,90.45
2019-01-29T05:14:30.643Z,90.56
2019-01-29T05:15:30.650Z,90.66
2019-01-29T05:16:30.622Z,90.87
2019-01-29T05:17:30.624Z,90.08
2019-01-29T05:18:32.054Z,89.93
2019-01-29T05:19:30.590Z,89.34
2019-01-29T05:20:30.602Z,89.65
2019-01-29T05:21:30.561Z,89.65
2019-01-29T05:22:30.563Z,89.76
2019-01-29T05:23:30.559Z,89.86
2019-01-29T05:24:30.529Z,89.86
2019-01-29T05:25:30.572Z,90.28
2019-01-29T05:26:30.515Z,90.22
2019-01-29T05:27:30.522Z,90.39
2019-01-29T05:28:30.506Z,90.39
2019-01-29T05:29:31.132Z,89.65
2019-01-29T05:30:30.465Z,90.01
2019-01-29T05:31:30.577Z,89.80
2019-01-29T05:32:30.465Z,90.11
2019-01-29T05:33:30.438Z,90.01
2019-01-29T05:34:30.439Z,90.22
2019-01-29T05:35:30.414Z,89.76
2019-01-29T05:36:30.420Z,90.18
2019-01-29T05:37:30.416Z,90.28
2019-01-29T05:38:30.402Z,89.59
2019-01-29T05:39:30.393Z,89.17
2019-01-29T05:40:30.401Z,90.22
2019-01-29T05:41:30.380Z,89.38
2019-01-29T05:42:30.352Z,89.17
2019-01-29T05:43:30.328Z,89.38
2019-01-29T05:44:30.326Z,88.65
2019-01-29T05:45:30.318Z,89.28
2019-01-29T05:46:30.325Z,89.59
2019-01-29T05:47:30.318Z,88.86
2019-01-29T05:48:30.278Z,89.07
2019-01-29T05:49:30.309Z,88.75
2019-01-29T05:50:30.262Z,89.11
2019-01-29T05:51:30.267Z,89.53
2019-01-29T05:52:30.250Z,89.00
2019-01-29T05:53:30.257Z,88.90
2019-01-29T05:54:30.220Z,89.22
2019-01-29T05:55:30.214Z,89.22
2019-01-29T05:56:30.230Z,88.59
2019-01-29T05:57:30.192Z,88.69
2019-01-29T05:58:30.190Z,88.59
2019-01-29T05:59:30.162Z,88.90
2019-01-29T06:00:30.163Z,88.69
2019-01-29T06:01:30.168Z,88.59
2019-01-29T06:02:30.128Z,88.48
2019-01-29T06:03:30.126Z,88.79
2019-01-29T06:04:30.130Z,87.79
2019-01-29T06:05:30.148Z,87.89
2019-01-29T06:06:30.159Z,87.74
2019-01-29T06:07:30.084Z,88.52
2019-01-29T06:08:30.067Z,88.79
2019-01-29T06:09:30.076Z,88.62
2019-01-29T06:10:30.084Z,88.94
2019-01-29T06:11:30.110Z,87.74
2019-01-29T06:12:30.071Z,88.10
2019-01-29T06:13:30.017Z,87.79
2019-01-29T06:14:30.009Z,87.79
2019-01-29T06:15:30.014Z,87.58
2019-01-29T06:16:30.013Z,87.58
2019-01-29T06:17:30.002Z,87.47
2019-01-29T06:18:29.962Z,87.79
2019-01-29T06:19:29.951Z,87.47
2019-01-29T06:20:29.958Z,87.47
2019-01-29T06:21:29.949Z,87.79
2019-01-29T06:22:29.968Z,87.68
2019-01-29T06:23:29.948Z,87.37
2019-01-29T06:24:29.905Z,88.21
2019-01-29T06:25:29.902Z,87.47
2019-01-29T06:26:29.903Z,87.58
2019-01-29T06:27:30.016Z,87.79
2019-01-29T06:28:29.888Z,87.58
2019-01-29T06:29:29.944Z,87.68
2019-01-29T06:30:29.907Z,87.68
2019-01-29T06:31:29.871Z,87.58
2019-01-29T06:32:29.968Z,87.79
2019-01-29T06:33:29.856Z,87.37
2019-01-29T06:34:29.856Z,87.68
2019-01-29T06:35:29.927Z,87.68
2019-01-29T06:36:29.857Z,87.58
2019-01-29T06:37:29.916Z,87.58
2019-01-29T06:38:29.888Z,87.68
2019-01-29T06:39:29.780Z,87.89
2019-01-29T06:40:29.778Z,87.26
2019-01-29T06:41:29.732Z,87.68
2019-01-29T06:42:29.740Z,87.99
2019-01-29T06:43:29.778Z,87.37
2019-01-29T06:44:29.758Z,87.99
2019-01-29T06:45:29.732Z,87.58
2019-01-29T06:47:30.952Z,87.79
2019-01-29T06:48:50.722Z,87.79
2019-01-29T06:49:29.653Z,87.68
2019-01-29T06:50:29.698Z,87.58
2019-01-29T06:51:29.680Z,87.89
2019-01-29T06:52:29.641Z,87.79
2019-01-29T06:53:29.739Z,87.79
2019-01-29T06:54:34.125Z,87.89
2019-01-29T06:55:29.661Z,87.89
2019-01-29T06:56:29.726Z,87.79
2019-01-29T06:57:29.634Z,89.04
2019-01-29T06:58:29.700Z,88.42
2019-01-29T06:59:29.603Z,88.42
2019-01-29T07:00:29.590Z,88.69
2019-01-29T07:02:30.750Z,88.52
2019-01-29T07:03:29.672Z,88.52
2019-01-29T07:05:30.668Z,89.04
2019-01-29T07:06:29.526Z,88.69
2019-01-29T07:07:29.576Z,88.48
2019-01-29T07:08:29.477Z,88.48
2019-01-29T07:10:30.700Z,88.90
2019-01-29T07:11:29.798Z,88.90
2019-01-29T07:12:29.615Z,88.69
2019-01-29T07:13:29.418Z,89.00
2019-01-29T07:14:29.418Z,89.11
2019-01-29T07:15:29.430Z,89.17
2019-01-29T07:16:29.430Z,88.79
2019-01-29T07:17:29.428Z,90.33
2019-01-29T07:18:29.448Z,89.70
2019-01-29T07:19:29.401Z,89.84
2019-01-29T07:20:29.357Z,89.53
2019-01-29T07:21:29.364Z,89.95
2019-01-29T07:22:29.350Z,90.16
2019-01-29T07:23:29.394Z,90.26
2019-01-29T07:24:29.334Z,90.47
2019-01-29T07:25:29.362Z,90.68
2019-01-29T07:27:30.491Z,91.41
2019-01-29T07:28:50.321Z,91.20
2019-01-29T07:29:50.228Z,91.41
2019-01-29T07:30:50.293Z,91.94
2019-01-29T07:31:29.229Z,91.89
2019-01-29T07:32:29.250Z,92.10
2019-01-29T07:33:29.457Z,91.89
2019-01-29T07:35:39.280Z,92.00
2019-01-29T07:36:39.264Z,92.21
2019-01-29T07:37:39.257Z,92.04
2019-01-29T07:38:39.356Z,92.42
2019-01-29T07:39:39.246Z,92.63
2019-01-29T07:40:39.251Z,92.52
2019-01-29T07:41:39.200Z,92.73
2019-01-29T07:42:39.235Z,92.73
2019-01-29T07:43:39.283Z,92.52
2019-01-29T07:44:39.270Z,92.63
2019-01-29T07:45:39.257Z,92.42
2019-01-29T07:46:39.166Z,92.73
2019-01-29T07:47:39.146Z,92.73
2019-01-29T07:48:39.147Z,92.73
2019-01-29T07:49:39.256Z,92.83
2019-01-29T07:50:39.204Z,92.79
2019-01-29T07:52:40.290Z,92.63
2019-01-29T07:53:39.097Z,92.69
2019-01-29T07:54:39.105Z,92.79
2019-01-29T07:56:40.124Z,92.48
2019-01-29T07:57:39.080Z,92.58
2019-01-29T07:58:39.112Z,92.58
2019-01-29T07:59:39.164Z,92.23
2019-01-29T08:00:39.061Z,92.27
2019-01-29T08:02:40.229Z,92.27
2019-01-29T08:03:39.826Z,92.44
2019-01-29T08:04:39.124Z,92.33
2019-01-29T08:05:39.058Z,92.23
2019-01-29T08:07:40.128Z,92.13
2019-01-29T08:08:38.943Z,91.77
2019-01-29T08:09:38.974Z,91.66
2019-01-29T08:10:38.978Z,92.29
2019-01-29T08:11:38.913Z,92.29
2019-01-29T08:12:38.933Z,92.29
2019-01-29T08:13:38.936Z,92.33
2019-01-29T08:14:38.977Z,92.40
2019-01-29T08:15:38.913Z,92.40
2019-01-29T08:16:38.928Z,92.40
2019-01-29T08:18:40.022Z,92.29
2019-01-29T08:19:38.947Z,92.29
2019-01-29T08:20:38.858Z,92.19
2019-01-29T08:21:38.855Z,92.60
2019-01-29T08:22:38.791Z,92.19
2019-01-29T08:24:39.989Z,91.66
2019-01-29T08:25:47.379Z,91.72
2019-01-29T08:26:39.901Z,91.83
2019-01-29T08:27:38.747Z,92.04
2019-01-29T08:29:39.889Z,92.04
2019-01-29T08:30:38.905Z,92.25
2019-01-29T08:31:38.885Z,91.83
2019-01-29T08:32:38.698Z,91.77
2019-01-29T08:33:40.726Z,91.62
2019-01-29T08:34:38.665Z,91.66
2019-01-29T08:35:38.798Z,91.87
2019-01-29T08:36:38.773Z,92.14
2019-01-29T08:37:38.667Z,92.25
2019-01-29T08:39:39.783Z,91.94
2019-01-29T08:40:38.635Z,91.52
2019-01-29T08:41:38.603Z,91.72
2019-01-29T08:42:38.617Z,91.41
2019-01-29T08:43:38.588Z,91.27
2019-01-29T08:44:38.595Z,91.31
2019-01-29T08:45:41.282Z,91.72
2019-01-29T08:46:38.540Z,91.89
2019-01-29T08:48:38.531Z,91.47
2019-01-29T08:49:38.507Z,91.52
2019-01-29T08:50:38.534Z,92.00
2019-01-29T08:51:38.493Z,91.52
2019-01-29T08:52:38.493Z,91.79
2019-01-29T08:53:38.539Z,91.58
2019-01-29T08:54:38.471Z,91.16
2019-01-29T08:55:38.475Z,91.47
2019-01-29T08:56:38.439Z,91.47
2019-01-29T08:57:38.462Z,90.75
2019-01-29T08:58:38.451Z,90.53
2019-01-29T08:59:38.415Z,90.64
2019-01-29T09:00:38.583Z,90.53
2019-01-29T09:01:38.378Z,90.95
2019-01-29T09:02:38.449Z,91.06
2019-01-29T09:03:38.435Z,91.37
2019-01-29T09:04:38.385Z,91.37
2019-01-29T09:05:38.402Z,91.06
2019-01-29T09:06:38.477Z,91.06
2019-01-29T09:07:38.355Z,91.79
2019-01-29T09:08:38.387Z,91.37
2019-01-29T09:09:38.323Z,91.69
2019-01-29T09:10:38.275Z,91.58
2019-01-29T09:11:38.312Z,91.54
2019-01-29T09:12:38.341Z,91.54
2019-01-29T09:13:38.297Z,91.64
2019-01-29T09:14:38.289Z,91.79
2019-01-29T09:15:39.191Z,91.75
2019-01-29T09:16:38.275Z,90.91
2019-01-29T09:17:38.383Z,91.22
2019-01-29T09:18:38.289Z,91.02
2019-01-29T09:19:38.291Z,91.43
2019-01-29T09:20:40.191Z,91.12
2019-01-29T09:21:38.209Z,90.91
2019-01-29T09:22:38.179Z,91.29
2019-01-29T09:23:38.254Z,91.08
2019-01-29T09:24:38.145Z,90.97
2019-01-29T09:25:38.165Z,91.39
2019-01-29T09:26:38.190Z,90.66
2019-01-29T09:27:38.141Z,91.29
2019-01-29T09:28:42.219Z,91.29
2019-01-29T09:29:38.161Z,91.39
2019-01-29T09:30:38.066Z,91.29
2019-01-29T09:31:38.109Z,91.18
2019-01-29T09:32:39.763Z,91.29
2019-01-29T09:33:38.087Z,91.08
2019-01-29T09:34:38.119Z,91.50
2019-01-29T09:35:38.041Z,91.50
2019-01-29T09:36:38.114Z,91.08
2019-01-29T09:37:38.151Z,91.18
2019-01-29T09:38:38.061Z,91.18
2019-01-29T09:39:40.109Z,91.39
2019-01-29T09:40:40.051Z,90.56
2019-01-29T09:41:37.993Z,90.66
2019-01-29T09:42:38.181Z,90.56
2019-01-29T09:45:39.087Z,90.45
2019-01-29T09:46:59.003Z,90.25
2019-01-29T09:47:37.991Z,90.56
2019-01-29T09:48:37.980Z,90.66
2019-01-29T09:49:39.957Z,90.66
2019-01-29T09:50:38.025Z,91.39
2019-01-29T09:51:37.934Z,91.29
2019-01-29T09:52:38.121Z,91.29
2019-01-29T09:53:38.000Z,91.29
2019-01-29T09:54:37.957Z,91.14
2019-01-29T09:55:37.917Z,91.35
2019-01-29T09:56:37.867Z,90.31
2019-01-29T09:57:37.882Z,90.52
2019-01-29T09:58:37.941Z,90.41
2019-01-29T09:59:37.868Z,90.20
2019-01-29T10:00:37.827Z,89.37
2019-01-29T10:01:37.897Z,89.37
2019-01-29T10:02:37.823Z,89.78
2019-01-29T10:03:37.990Z,90.10
2019-01-29T10:04:37.789Z,90.20
2019-01-29T10:05:38.633Z,89.68
2019-01-29T10:06:37.779Z,89.89
2019-01-29T10:07:37.777Z,90.10
2019-01-29T10:08:37.969Z,89.78
2019-01-29T10:09:37.759Z,89.68
2019-01-29T10:10:37.655Z,89.43
2019-01-29T10:11:37.643Z,89.32
2019-01-29T10:12:37.689Z,89.54
2019-01-29T10:13:40.210Z,89.32
2019-01-29T10:14:37.674Z,89.43
2019-01-29T10:15:37.620Z,89.12
2019-01-29T10:16:37.627Z,89.01
2019-01-29T10:17:37.786Z,88.39
2019-01-29T10:18:37.817Z,88.29
2019-01-29T10:19:37.829Z,88.22
2019-01-29T10:20:38.187Z,88.91
2019-01-29T10:21:37.609Z,88.81
2019-01-29T10:22:37.605Z,88.91
2019-01-29T10:23:37.717Z,88.39
2019-01-29T10:24:37.564Z,89.12
2019-01-29T10:25:38.232Z,89.75
2019-01-29T10:26:37.481Z,89.64
2019-01-29T10:27:37.689Z,88.81
2019-01-29T10:28:37.617Z,88.91
2019-01-29T10:29:37.654Z,88.49
2019-01-29T10:30:37.540Z,88.39
2019-01-29T10:31:39.519Z,88.81
2019-01-29T10:32:37.503Z,89.01
2019-01-29T10:33:37.507Z,89.75
2019-01-29T10:34:37.571Z,89.43
2019-01-29T10:35:37.503Z,89.50
2019-01-29T10:36:37.451Z,88.81
2019-01-29T10:37:37.433Z,88.60
2019-01-29T10:38:37.357Z,90.06
2019-01-29T10:39:39.528Z,89.12
2019-01-29T10:40:37.438Z,88.35
2019-01-29T10:41:39.434Z,88.91
2019-01-29T10:42:37.372Z,88.87
2019-01-29T10:44:38.625Z,88.98
2019-01-29T10:45:37.365Z,88.98
2019-01-29T10:46:37.341Z,89.54
2019-01-29T10:47:37.409Z,89.29
2019-01-29T10:49:38.484Z,88.87
2019-01-29T10:50:37.320Z,88.76
2019-01-29T10:51:39.326Z,88.76
2019-01-29T10:52:37.249Z,88.24
2019-01-29T10:53:39.357Z,88.76
2019-01-29T10:54:37.300Z,88.87
2019-01-29T10:55:47.046Z,88.66
2019-01-29T10:56:38.307Z,88.98
2019-01-29T10:57:37.201Z,88.76
2019-01-29T10:58:37.169Z,89.81
2019-01-29T10:59:37.215Z,89.50
2019-01-29T11:00:37.191Z,89.50
2019-01-29T11:01:37.132Z,89.14
2019-01-29T11:02:37.154Z,88.73
2019-01-29T11:03:37.205Z,89.81
2019-01-29T11:05:38.643Z,89.45
2019-01-29T11:06:37.081Z,89.35
2019-01-29T11:07:37.083Z,89.04
2019-01-29T11:08:41.239Z,88.98
2019-01-29T11:09:38.185Z,89.56
2019-01-29T11:10:37.096Z,89.56
2019-01-29T11:11:37.063Z,89.56
2019-01-29T11:14:04.697Z,88.20
2019-01-29T11:15:04.676Z,88.56
2019-01-29T11:16:05.198Z,88.66
2019-01-29T11:17:04.799Z,88.04
2019-01-29T11:18:07.728Z,88.93
2019-01-29T11:20:06.241Z,88.66
2019-01-29T11:21:25.704Z,88.73
2019-01-29T11:22:04.613Z,88.31
2019-01-29T11:25:33.057Z,88.31
2019-01-29T11:26:32.151Z,88.83
2019-01-29T11:29:16.999Z,88.73
2019-01-29T11:31:19.917Z,88.17
2019-01-29T11:32:16.835Z,88.37
2019-01-29T11:33:20.731Z,87.99
2019-01-29T11:34:16.778Z,87.79
2019-01-29T11:35:20.791Z,88.20
2019-01-29T11:36:26.636Z,88.10
2019-01-29T11:39:03.076Z,88.42
2019-01-29T11:41:03.928Z,88.10
2019-01-29T11:42:02.999Z,88.31
2019-01-29T11:43:25.591Z,88.20
2019-01-29T11:44:06.015Z,88.93
2019-01-29T11:46:14.577Z,88.10
2019-01-29T11:47:14.490Z,88.20
2019-01-29T11:48:14.414Z,88.10
2019-01-29T11:49:14.498Z,88.10
2019-01-29T11:50:14.420Z,88.20
2019-01-29T11:52:24.894Z,87.99
2019-01-29T11:53:24.778Z,88.27
2019-01-29T11:54:28.903Z,87.99
2019-01-29T11:56:51.404Z,87.37
2019-01-29T11:57:51.358Z,88.31
2019-01-29T11:58:51.428Z,88.48
2019-01-29T11:59:51.431Z,87.33
2019-01-29T12:00:53.464Z,87.33
2019-01-29T12:01:51.280Z,87.23
2019-01-29T12:02:53.378Z,86.71
2019-01-29T12:05:01.702Z,86.29
2019-01-29T12:06:01.511Z,86.15
2019-01-29T12:07:51.123Z,85.94
2019-01-29T12:09:03.250Z,85.52
2019-01-29T12:10:03.572Z,85.06
2019-01-29T12:12:29.618Z,84.75
2019-01-29T12:13:33.617Z,84.75
2019-01-29T12:14:32.705Z,84.75
2019-01-29T12:15:30.690Z,84.03
2019-01-29T12:16:29.518Z,83.82
2019-01-29T12:18:10.953Z,84.20
2019-01-29T12:18:33.113Z,83.61
2019-01-29T12:19:29.472Z,84.23
2019-01-29T12:20:29.474Z,83.61
2019-01-29T12:21:45.957Z,83.40
2019-01-29T12:22:33.476Z,83.51
2019-01-29T12:23:32.063Z,83.37
2019-01-29T12:24:29.402Z,81.87
2019-01-29T12:25:46.909Z,81.15
2019-01-29T12:28:30.626Z,80.93
2019-01-29T12:29:29.341Z,75.50
2019-01-29T12:30:33.437Z,75.53
2019-01-29T12:32:38.549Z,76.29
2019-01-29T12:33:50.752Z,76.81
2019-01-29T12:34:29.380Z,76.85
2019-01-29T12:36:30.622Z,77.82
2019-01-29T12:37:29.360Z,78.58
2019-01-29T12:38:30.327Z,78.55
2019-01-29T12:39:29.394Z,78.47
2019-01-29T12:40:32.208Z,79.20
2019-01-29T12:41:31.341Z,79.86
2019-01-29T12:44:30.532Z,79.76
2019-01-29T12:45:58.781Z,79.65
2019-01-29T12:46:30.379Z,80.11
2019-01-29T12:47:29.184Z,79.90
2019-01-29T12:48:31.369Z,80.52
2019-01-29T12:49:30.270Z,80.66
2019-01-29T12:50:29.109Z,80.35
2019-01-29T12:52:30.547Z,81.56
2019-01-29T12:53:29.278Z,81.46
2019-01-29T12:54:29.485Z,80.59
2019-01-29T12:55:29.086Z,79.48
2019-01-29T12:56:29.092Z,79.76
2019-01-29T12:57:29.100Z,79.65
2019-01-29T12:59:30.216Z,79.06
2019-01-29T13:00:29.022Z,79.06
2019-01-29T13:01:29.035Z,79.69
2019-01-29T13:02:29.084Z,79.34
2019-01-29T13:03:29.095Z,78.92
2019-01-29T13:04:29.128Z,78.82
2019-01-29T13:05:32.663Z,77.12
2019-01-29T13:06:29.156Z,73.77
2019-01-29T13:07:28.980Z,71.78
2019-01-29T13:08:28.992Z,71.15
2019-01-29T13:09:28.976Z,71.91
2019-01-29T13:10:31.094Z,72.77
2019-01-29T13:11:31.680Z,73.53
2019-01-29T13:12:28.948Z,74.22
2019-01-29T13:13:30.860Z,75.33
2019-01-29T13:14:28.846Z,76.19
2019-01-29T13:15:30.895Z,77.58
2019-01-29T13:16:28.923Z,78.72
2019-01-29T13:17:28.994Z,78.41
2019-01-29T13:18:28.838Z,78.09
2019-01-29T13:19:28.846Z,78.72
2019-01-29T13:20:28.916Z,79.55
2019-01-29T13:21:28.866Z,80.21
2019-01-29T13:22:28.812Z,79.48
2019-01-29T13:23:30.834Z,79.80
2019-01-29T13:24:28.780Z,80.15
2019-01-29T13:25:28.831Z,80.77
2019-01-29T13:26:30.018Z,80.46
2019-01-29T13:27:28.742Z,80.35
2019-01-29T13:28:28.720Z,80.35
2019-01-29T13:29:30.774Z,80.87
2019-01-29T13:30:30.508Z,80.77
2019-01-29T13:31:28.636Z,80.77
2019-01-29T13:32:28.848Z,80.63
2019-01-29T13:33:28.684Z,80.87
2019-01-29T13:34:28.984Z,80.94
2019-01-29T13:35:30.706Z,80.11
2019-01-29T13:36:28.768Z,79.80
2019-01-29T13:37:28.624Z,80.00
2019-01-29T13:38:28.626Z,79.48
2019-01-29T13:39:28.650Z,79.65
2019-01-29T13:40:28.620Z,79.97
2019-01-29T13:41:28.690Z,78.92
2019-01-29T13:43:29.626Z,79.24
2019-01-29T13:44:28.522Z,79.03
2019-01-29T13:45:28.515Z,78.41
2019-01-29T13:46:28.538Z,78.41
2019-01-29T13:47:28.467Z,78.92
2019-01-29T13:48:28.600Z,79.24
2019-01-29T13:49:28.469Z,78.86
2019-01-29T13:50:28.459Z,79.65
2019-01-29T13:51:28.462Z,79.38
2019-01-29T13:52:28.567Z,79.97
2019-01-29T13:53:28.474Z,79.65
2019-01-29T13:54:28.482Z,79.44
2019-01-29T13:55:28.420Z,79.76